createdAt,value
2019-02-16T00:02:26.735Z,26.33
2019-02-16T00:04:55.151Z,26.34
2019-02-16T00:07:23.591Z,26.29
2019-02-16T00:09:52.011Z,26.33
2019-02-16T00:12:20.427Z,26.31
2019-02-16T00:14:48.931Z,26.30
2019-02-16T00:17:17.355Z,26.32
2019-02-16T00:19:45.765Z,26.29
2019-02-16T00:22:14.190Z,26.30
2019-02-16T00:24:42.672Z,26.29
2019-02-16T00:27:11.083Z,26.27
2019-02-16T00:29:39.506Z,26.26
2019-02-16T00:32:07.951Z,26.24
2019-02-16T00:34:36.368Z,26.26
2019-02-16T00:37:04.816Z,26.26
2019-02-16T00:39:33.251Z,26.24
2019-02-16T00:42:01.675Z,26.25
2019-02-16T00:44:30.411Z,26.24
2019-02-16T00:46:58.760Z,26.21
2019-02-16T00:49:27.193Z,26.19
2019-02-16T00:51:55.682Z,26.20
2019-02-16T00:54:24.143Z,26.20
2019-02-16T00:56:52.542Z,26.20
2019-02-16T00:59:20.951Z,26.16
2019-02-16T01:01:49.392Z,26.16
2019-02-16T01:04:17.828Z,26.13
2019-02-16T01:06:46.235Z,26.15
2019-02-16T01:09:14.751Z,26.13
2019-02-16T01:11:43.161Z,26.13
2019-02-16T01:14:11.591Z,26.12
2019-02-16T01:16:40.015Z,26.12
2019-02-16T01:19:08.455Z,26.09
2019-02-16T01:21:36.868Z,26.12
2019-02-16T01:24:05.303Z,26.07
2019-02-16T01:26:33.720Z,26.06
2019-02-16T01:29:02.150Z,26.05
2019-02-16T01:31:30.577Z,26.08
2019-02-16T01:33:59.014Z,26.09
2019-02-16T01:36:27.419Z,26.06
2019-02-16T01:38:55.872Z,26.08
2019-02-16T01:41:24.270Z,26.05
2019-02-16T01:43:52.705Z,26.04
2019-02-16T01:46:21.179Z,26.00
2019-02-16T01:48:49.604Z,26.01
2019-02-16T01:51:18.146Z,26.00
2019-02-16T01:53:46.557Z,25.95
2019-02-16T01:56:14.990Z,25.99
2019-02-16T01:58:43.406Z,26.02
2019-02-16T02:01:11.857Z,25.97
2019-02-16T02:03:40.270Z,25.97
2019-02-16T02:06:08.718Z,25.97
2019-02-16T02:08:37.136Z,25.97
2019-02-16T02:11:06.071Z,25.97
2019-02-16T02:13:34.488Z,25.96
2019-02-16T02:16:03.189Z,25.92
2019-02-16T02:18:31.609Z,25.88
2019-02-16T02:21:00.044Z,25.88
2019-02-16T02:23:28.482Z,25.93
2019-02-16T02:25:56.895Z,25.93
2019-02-16T02:28:25.334Z,25.94
2019-02-16T02:30:53.746Z,25.92
2019-02-16T02:33:22.200Z,25.88
2019-02-16T02:35:50.584Z,25.88
2019-02-16T02:38:18.996Z,25.83
2019-02-16T02:40:47.416Z,25.89
2019-02-16T02:43:15.834Z,25.86
2019-02-16T02:45:44.366Z,25.88
2019-02-16T02:48:12.779Z,25.86
2019-02-16T02:50:41.190Z,25.86
2019-02-16T02:53:09.614Z,25.88
2019-02-16T02:55:38.020Z,25.89
2019-02-16T02:58:06.466Z,25.89
2019-02-16T03:00:34.972Z,25.89
2019-02-16T03:03:03.412Z,25.79
2019-02-16T03:05:31.820Z,25.85
2019-02-16T03:08:00.239Z,25.86
2019-02-16T03:10:28.650Z,25.80
2019-02-16T03:12:57.082Z,25.82
2019-02-16T03:15:25.517Z,25.78
2019-02-16T03:17:53.935Z,25.82
2019-02-16T03:20:30.277Z,25.82
2019-02-16T03:23:18.430Z,25.82
2019-02-16T03:25:52.728Z,25.78
2019-02-16T03:28:29.943Z,25.78
2019-02-16T03:31:16.404Z,25.79
2019-02-16T03:33:50.971Z,25.81
2019-02-16T03:36:22.451Z,25.84
2019-02-16T03:38:56.894Z,25.86
2019-02-16T03:41:25.302Z,25.85
2019-02-16T03:43:53.750Z,25.85
2019-02-16T03:46:22.186Z,25.89
2019-02-16T03:48:50.590Z,25.86
2019-02-16T03:51:19.041Z,25.89
2019-02-16T03:53:47.491Z,25.91
2019-02-16T03:56:15.925Z,25.90
2019-02-16T03:58:44.360Z,25.90
2019-02-16T04:01:12.762Z,25.96
2019-02-16T04:03:41.211Z,25.92
2019-02-16T04:06:09.631Z,25.94
2019-02-16T04:08:38.071Z,25.91
2019-02-16T04:11:06.470Z,25.94
2019-02-16T04:13:34.923Z,25.93
2019-02-16T04:16:03.366Z,25.92
2019-02-16T04:18:31.748Z,25.95
2019-02-16T04:21:00.165Z,25.93
2019-02-16T04:23:28.594Z,25.94
2019-02-16T04:25:57.027Z,25.96
2019-02-16T04:28:25.447Z,25.93
2019-02-16T04:30:53.880Z,25.94
2019-02-16T04:33:22.291Z,25.94
2019-02-16T04:35:50.745Z,25.94
2019-02-16T04:38:19.186Z,25.93
2019-02-16T04:40:47.594Z,25.92
2019-02-16T04:43:16.113Z,25.91
2019-02-16T04:45:44.548Z,25.93
2019-02-16T04:48:12.960Z,25.94
2019-02-16T04:50:41.379Z,25.95
2019-02-16T04:53:09.787Z,25.93
2019-02-16T04:55:38.222Z,25.91
2019-02-16T04:58:06.635Z,25.92
2019-02-16T05:00:35.083Z,25.92
2019-02-16T05:03:03.507Z,25.94
2019-02-16T05:05:31.951Z,25.93
2019-02-16T05:08:00.355Z,25.87
2019-02-16T05:10:28.771Z,25.91
2019-02-16T05:12:57.191Z,25.92
2019-02-16T05:15:25.606Z,25.89
2019-02-16T05:17:54.043Z,25.88
2019-02-16T05:20:22.454Z,25.90
2019-02-16T05:22:50.882Z,25.91
2019-02-16T05:25:19.283Z,25.91
2019-02-16T05:27:47.829Z,25.94
2019-02-16T05:30:16.234Z,25.92
2019-02-16T05:32:44.642Z,25.91
2019-02-16T05:35:13.166Z,25.93
2019-02-16T05:37:41.593Z,25.93
2019-02-16T05:40:10.162Z,25.99
2019-02-16T05:42:38.564Z,25.96
2019-02-16T05:45:07.555Z,25.94
2019-02-16T05:47:35.956Z,25.95
2019-02-16T05:50:04.731Z,25.90
2019-02-16T05:52:33.145Z,25.88
2019-02-16T05:55:01.579Z,25.93
2019-02-16T05:57:29.973Z,25.96
2019-02-16T05:59:58.403Z,25.88
2019-02-16T06:02:26.807Z,25.88
2019-02-16T06:04:55.250Z,25.90
2019-02-16T06:07:23.687Z,25.90
2019-02-16T06:09:52.113Z,25.88
2019-02-16T06:12:20.541Z,25.91
2019-02-16T06:14:48.977Z,25.90
2019-02-16T06:17:17.423Z,25.88
2019-02-16T06:19:45.850Z,25.93
2019-02-16T06:22:14.267Z,25.92
2019-02-16T06:24:42.693Z,25.95
2019-02-16T06:27:11.099Z,25.88
2019-02-16T06:29:39.535Z,25.96
2019-02-16T06:32:07.969Z,25.90
2019-02-16T06:34:36.404Z,25.92
2019-02-16T06:37:06.489Z,25.89
2019-02-16T06:39:34.929Z,25.90
2019-02-16T06:42:03.352Z,25.88
2019-02-16T06:44:31.804Z,25.92
2019-02-16T06:47:00.236Z,25.97
2019-02-16T06:49:28.632Z,25.93
2019-02-16T06:51:57.074Z,25.98
2019-02-16T06:54:25.499Z,26.01
2019-02-16T06:57:01.321Z,25.99
2019-02-16T06:59:29.762Z,25.97
2019-02-16T07:01:58.159Z,26.01
2019-02-16T07:04:26.607Z,25.94
2019-02-16T07:06:55.019Z,26.01
2019-02-16T07:09:23.435Z,26.02
2019-02-16T07:11:51.861Z,25.98
2019-02-16T07:14:20.313Z,26.02
2019-02-16T07:17:02.372Z,26.02
2019-02-16T07:19:32.459Z,25.99
2019-02-16T07:22:00.907Z,25.98
2019-02-16T07:24:29.305Z,25.98
2019-02-16T07:26:57.767Z,25.99
2019-02-16T07:29:26.255Z,25.97
2019-02-16T07:31:54.703Z,25.95
2019-02-16T07:34:23.157Z,25.89
2019-02-16T07:36:51.573Z,25.82
2019-02-16T07:39:19.989Z,25.91
2019-02-16T07:41:48.431Z,25.88
2019-02-16T07:44:33.124Z,25.90
2019-02-16T07:47:03.196Z,26.04
2019-02-16T07:49:33.244Z,26.02
2019-02-16T07:52:03.316Z,25.99
2019-02-16T07:54:36.341Z,25.90
2019-02-16T07:57:06.407Z,25.96
2019-02-16T07:59:45.148Z,26.29
2019-02-16T08:02:18.222Z,26.08
2019-02-16T08:05:06.454Z,26.65
2019-02-16T08:07:39.448Z,26.21
2019-02-16T08:10:18.350Z,26.55
2019-02-16T08:13:03.591Z,26.50
2019-02-16T08:15:33.662Z,26.20
2019-02-16T08:18:06.147Z,26.29
2019-02-16T08:20:41.940Z,26.36
2019-02-16T08:23:30.113Z,26.65
2019-02-16T08:26:05.635Z,26.33
2019-02-16T08:28:41.236Z,26.29
2019-02-16T08:31:11.313Z,26.31
2019-02-16T08:33:44.132Z,26.31
2019-02-16T08:36:31.457Z,26.34
2019-02-16T08:39:16.663Z,26.28
2019-02-16T08:41:58.563Z,26.31
2019-02-16T08:44:34.686Z,26.29
2019-02-16T08:47:21.296Z,26.34
2019-02-16T08:50:09.365Z,26.33
2019-02-16T08:52:45.372Z,26.35
2019-02-16T08:55:15.407Z,26.31
2019-02-16T08:57:48.144Z,26.32
2019-02-16T09:00:24.367Z,26.31
2019-02-16T09:03:00.248Z,26.35
2019-02-16T09:05:32.887Z,26.34
2019-02-16T09:08:15.065Z,24.92
2019-02-16T09:10:51.141Z,24.73
2019-02-16T09:13:21.217Z,24.34
2019-02-16T09:15:51.293Z,24.41
2019-02-16T09:18:33.610Z,24.89
2019-02-16T09:21:15.435Z,25.12
2019-02-16T09:23:59.146Z,25.15
2019-02-16T09:26:35.206Z,24.80
2019-02-16T09:29:05.290Z,24.69
2019-02-16T09:31:44.104Z,24.65
2019-02-16T09:34:26.454Z,24.57
2019-02-16T09:36:56.521Z,24.98
2019-02-16T09:39:42.795Z,24.41
2019-02-16T09:42:21.099Z,24.74
2019-02-16T09:44:50.405Z,25.60
2019-02-16T09:47:19.645Z,25.50
2019-02-16T09:49:48.926Z,25.33
2019-02-16T09:52:20.921Z,25.47
2019-02-16T09:54:55.734Z,25.10
2019-02-16T09:57:43.329Z,25.30
2019-02-16T10:00:15.477Z,25.75
2019-02-16T10:02:50.790Z,25.29
2019-02-16T10:05:20.048Z,25.87
2019-02-16T10:07:49.326Z,25.96
2019-02-16T10:10:18.642Z,26.30
2019-02-16T10:12:56.799Z,25.79
2019-02-16T10:15:26.120Z,25.92
2019-02-16T10:17:55.393Z,26.14
2019-02-16T10:20:30.543Z,26.01
2019-02-16T10:23:08.996Z,25.89
2019-02-16T10:25:54.925Z,26.29
2019-02-16T10:28:32.560Z,26.14
2019-02-16T10:31:13.857Z,26.17
2019-02-16T10:33:52.122Z,26.49
2019-02-16T10:36:38.086Z,26.21
2019-02-16T10:39:26.075Z,25.91
2019-02-16T10:42:10.268Z,26.16
2019-02-16T10:44:45.283Z,26.28
2019-02-16T10:47:21.015Z,26.09
2019-02-16T10:50:05.616Z,26.38
2019-02-16T10:52:34.920Z,26.19
2019-02-16T10:55:13.148Z,26.34
2019-02-16T10:57:45.459Z,26.27
2019-02-16T11:00:14.771Z,26.19
2019-02-16T11:02:46.860Z,26.43
2019-02-16T11:05:18.993Z,26.59
2019-02-16T11:08:00.162Z,26.77
2019-02-16T11:10:35.191Z,26.97
2019-02-16T11:13:22.950Z,26.64
2019-02-16T11:15:52.234Z,26.87
2019-02-16T11:18:21.604Z,27.13
2019-02-16T11:20:50.884Z,27.48
2019-02-16T11:23:20.145Z,27.12
2019-02-16T11:26:05.921Z,27.02
2019-02-16T11:28:35.202Z,27.09
2019-02-16T11:31:16.472Z,26.77
2019-02-16T11:33:51.482Z,26.86
2019-02-16T11:36:26.464Z,26.89
2019-02-16T11:39:01.533Z,26.82
2019-02-16T11:41:30.801Z,26.67
2019-02-16T11:44:15.439Z,26.95
2019-02-16T11:46:59.776Z,26.77
2019-02-16T11:49:34.954Z,26.75
2019-02-16T11:52:20.509Z,26.76
2019-02-16T11:54:55.566Z,26.62
2019-02-16T11:57:25.032Z,27.25
2019-02-16T12:00:00.512Z,26.99
2019-02-16T12:02:39.508Z,26.90
2019-02-16T12:05:09.142Z,26.80
2019-02-16T12:07:47.229Z,26.68
2019-02-16T12:10:16.702Z,26.57
2019-02-16T12:12:48.972Z,26.80
2019-02-16T12:15:18.238Z,27.06
2019-02-16T12:17:53.271Z,27.39
2019-02-16T12:20:33.636Z,26.98
2019-02-16T12:22:59.429Z,26.86
2019-02-16T12:25:45.156Z,27.32
2019-02-16T12:28:23.397Z,27.10
2019-02-16T12:30:58.859Z,27.63
2019-02-16T12:33:28.144Z,27.20
2019-02-16T12:36:00.128Z,26.98
2019-02-16T12:38:41.419Z,26.85
2019-02-16T12:41:10.716Z,27.31
2019-02-16T12:43:56.264Z,27.74
2019-02-16T12:46:41.875Z,27.59
2019-02-16T12:49:14.067Z,27.52
2019-02-16T12:51:52.594Z,27.24
2019-02-16T12:54:21.865Z,27.50
2019-02-16T12:56:53.880Z,27.35
2019-02-16T12:59:28.922Z,27.11
2019-02-16T13:02:00.670Z,27.44
2019-02-16T13:04:46.446Z,27.11
2019-02-16T13:07:31.982Z,26.78
2019-02-16T13:10:04.145Z,26.76
2019-02-16T13:12:35.287Z,26.40
2019-02-16T13:15:16.616Z,26.84
2019-02-16T13:17:48.794Z,26.76
2019-02-16T13:20:23.815Z,26.57
2019-02-16T13:22:58.761Z,26.59
2019-02-16T13:25:28.039Z,26.67
2019-02-16T13:28:15.787Z,26.73
2019-02-16T13:30:45.068Z,26.56
2019-02-16T13:33:31.063Z,26.45
2019-02-16T13:36:16.615Z,26.61
2019-02-16T13:38:45.907Z,26.46
2019-02-16T13:41:18.341Z,26.48
2019-02-16T13:43:47.611Z,26.60
2019-02-16T13:46:25.925Z,26.51
2019-02-16T13:48:55.271Z,26.40
2019-02-16T13:51:27.697Z,26.34
2019-02-16T13:53:59.639Z,26.31
2019-02-16T13:56:28.909Z,26.22
2019-02-16T13:59:14.506Z,26.22
2019-02-16T14:01:46.696Z,26.11
2019-02-16T14:04:32.347Z,25.96
2019-02-16T14:07:01.640Z,25.89
2019-02-16T14:09:31.008Z,25.78
2019-02-16T14:12:09.185Z,25.83
2019-02-16T14:14:41.298Z,25.76
2019-02-16T14:17:13.740Z,25.89
2019-02-16T14:19:41.408Z,25.80
2019-02-16T14:22:09.005Z,25.63
2019-02-16T14:24:44.226Z,25.49
2019-02-16T14:27:11.862Z,25.51
2019-02-16T14:29:39.496Z,25.50
2019-02-16T14:32:07.143Z,25.57
2019-02-16T14:34:34.845Z,25.67
2019-02-16T14:37:04.151Z,25.58
2019-02-16T14:39:33.664Z,25.40
2019-02-16T14:42:01.290Z,25.54
2019-02-16T14:44:28.928Z,25.94
2019-02-16T14:46:56.659Z,25.57
2019-02-16T14:49:24.320Z,25.60
2019-02-16T14:51:51.941Z,25.47
2019-02-16T14:54:19.639Z,25.35
2019-02-16T14:56:47.269Z,25.33
2019-02-16T14:59:14.994Z,25.63
2019-02-16T15:01:42.604Z,25.68
2019-02-16T15:04:10.284Z,26.01
2019-02-16T15:06:37.909Z,25.79
2019-02-16T15:09:06.014Z,25.83
2019-02-16T15:11:34.011Z,25.78
2019-02-16T15:14:01.685Z,25.73
2019-02-16T15:16:29.329Z,25.92
2019-02-16T15:18:56.957Z,25.54
2019-02-16T15:21:24.616Z,25.45
2019-02-16T15:23:52.244Z,25.63
2019-02-16T15:26:28.141Z,25.50
2019-02-16T15:28:49.370Z,25.68
2019-02-16T15:31:17.126Z,25.87
2019-02-16T15:33:44.759Z,25.62
2019-02-16T15:36:12.412Z,25.75
2019-02-16T15:38:40.064Z,25.67
2019-02-16T15:41:07.747Z,25.56
2019-02-16T15:43:35.399Z,25.61
2019-02-16T15:46:03.052Z,25.38
2019-02-16T15:48:30.682Z,25.73
2019-02-16T15:50:58.344Z,25.56
2019-02-16T15:53:25.998Z,26.02
2019-02-16T15:55:53.659Z,26.15
2019-02-16T15:58:21.269Z,25.82
2019-02-16T16:00:49.012Z,26.04
2019-02-16T16:03:16.897Z,25.83
2019-02-16T16:05:44.568Z,25.68
2019-02-16T16:08:26.095Z,25.91
2019-02-16T16:11:01.246Z,26.08
2019-02-16T16:13:30.554Z,26.34
2019-02-16T16:15:59.825Z,25.90
2019-02-16T16:18:44.394Z,25.64
2019-02-16T16:21:19.431Z,25.69
2019-02-16T16:23:51.650Z,26.25
2019-02-16T16:26:20.938Z,25.57
2019-02-16T16:29:00.669Z,25.62
2019-02-16T16:31:29.678Z,25.59
2019-02-16T16:34:01.937Z,25.35
2019-02-16T16:36:34.139Z,25.40
2019-02-16T16:39:03.412Z,25.36
2019-02-16T16:41:32.688Z,25.43
2019-02-16T16:44:10.747Z,25.95
2019-02-16T16:46:48.930Z,25.53
2019-02-16T16:49:20.980Z,25.50
2019-02-16T16:51:50.278Z,25.36
2019-02-16T16:54:25.519Z,25.81
2019-02-16T16:56:57.767Z,25.67
2019-02-16T16:59:42.350Z,25.50
2019-02-16T17:02:11.630Z,25.65
2019-02-16T17:04:46.748Z,25.68
2019-02-16T17:07:22.106Z,25.76
2019-02-16T17:09:51.401Z,25.94
2019-02-16T17:12:23.374Z,25.92
2019-02-16T17:15:01.387Z,25.94
2019-02-16T17:17:30.686Z,26.12
2019-02-16T17:19:59.957Z,26.11
2019-02-16T17:22:29.243Z,26.31
2019-02-16T17:25:14.014Z,26.31
2019-02-16T17:27:46.282Z,26.79
2019-02-16T17:30:34.952Z,27.01
2019-02-16T17:33:09.923Z,26.83
2019-02-16T17:35:39.198Z,26.65
2019-02-16T17:38:24.765Z,26.54
2019-02-16T17:41:10.475Z,26.85
2019-02-16T17:43:48.723Z,27.11
2019-02-16T17:46:34.446Z,26.73
2019-02-16T17:49:03.697Z,26.91
2019-02-16T17:51:32.975Z,26.71
2019-02-16T17:54:08.063Z,26.70
2019-02-16T17:56:46.705Z,26.69
2019-02-16T17:59:15.721Z,26.60
2019-02-16T18:01:44.973Z,26.43
2019-02-16T18:04:14.262Z,26.61
2019-02-16T18:06:46.510Z,26.85
2019-02-16T18:09:21.502Z,26.62
2019-02-16T18:12:02.943Z,26.67
2019-02-16T18:14:37.745Z,26.58
2019-02-16T18:17:13.086Z,26.61
2019-02-16T18:19:44.886Z,26.55
2019-02-16T18:22:23.197Z,26.56
2019-02-16T18:25:10.313Z,26.50
2019-02-16T18:27:51.921Z,26.57
2019-02-16T18:30:23.669Z,26.53
2019-02-16T18:32:59.045Z,26.41
2019-02-16T18:35:40.331Z,26.45
2019-02-16T18:38:18.324Z,26.75
2019-02-16T18:40:53.600Z,26.51
2019-02-16T18:43:25.840Z,26.48
2019-02-16T18:46:11.581Z,26.43
2019-02-16T18:48:43.527Z,26.65
2019-02-16T18:51:18.845Z,26.63
2019-02-16T18:53:48.141Z,26.53
2019-02-16T18:56:35.464Z,26.49
2019-02-16T18:59:07.226Z,26.41
2019-02-16T19:01:36.501Z,26.41
2019-02-16T19:04:05.859Z,26.83
2019-02-16T19:06:41.185Z,26.79
2019-02-16T19:09:10.453Z,27.07
2019-02-16T19:11:39.739Z,27.35
2019-02-16T19:14:09.038Z,27.37
2019-02-16T19:16:41.626Z,27.35
2019-02-16T19:19:10.875Z,27.27
2019-02-16T19:21:56.405Z,27.02
2019-02-16T19:24:28.683Z,27.01
2019-02-16T19:27:03.878Z,27.35
2019-02-16T19:29:35.921Z,27.41
2019-02-16T19:32:05.182Z,27.43
2019-02-16T19:34:40.330Z,27.55
2019-02-16T19:37:12.046Z,27.36
2019-02-16T19:39:43.988Z,27.32
2019-02-16T19:42:16.368Z,27.38
2019-02-16T19:44:45.652Z,27.48
2019-02-16T19:47:31.453Z,27.51
2019-02-16T19:50:17.097Z,27.61
2019-02-16T19:52:52.137Z,27.62
2019-02-16T19:55:38.013Z,27.40
2019-02-16T19:58:16.032Z,27.41
2019-02-16T20:00:47.793Z,27.33
2019-02-16T20:03:23.006Z,27.44
2019-02-16T20:05:56.168Z,27.30
2019-02-16T20:08:25.540Z,27.25
2019-02-16T20:11:12.025Z,27.77
2019-02-16T20:13:41.545Z,27.66
2019-02-16T20:16:13.489Z,27.46
2019-02-16T20:18:45.488Z,27.56
2019-02-16T20:21:23.723Z,27.54
2019-02-16T20:23:55.747Z,27.58
2019-02-16T20:26:25.029Z,27.47
2019-02-16T20:28:56.985Z,27.36
2019-02-16T20:31:28.948Z,27.44
2019-02-16T20:33:58.218Z,27.20
2019-02-16T20:36:42.625Z,27.24
2019-02-16T20:39:14.549Z,27.45
2019-02-16T20:41:46.871Z,27.50
2019-02-16T20:44:24.904Z,27.65
2019-02-16T20:46:54.183Z,27.82
2019-02-16T20:49:39.964Z,27.56
2019-02-16T20:52:09.233Z,27.42
2019-02-16T20:54:44.289Z,27.33
2019-02-16T20:57:13.539Z,27.17
2019-02-16T20:59:42.824Z,27.03
2019-02-16T21:02:17.891Z,26.87
2019-02-16T21:04:52.916Z,26.82
2019-02-16T21:07:27.941Z,26.75
2019-02-16T21:10:00.311Z,26.75
2019-02-16T21:12:29.670Z,26.72
2019-02-16T21:14:58.955Z,26.77
2019-02-16T21:17:43.534Z,26.88
2019-02-16T21:20:15.484Z,26.81
2019-02-16T21:22:47.468Z,26.80
2019-02-16T21:25:16.768Z,26.85
2019-02-16T21:27:57.869Z,26.83
2019-02-16T21:30:36.440Z,26.78
2019-02-16T21:33:08.492Z,26.79
2019-02-16T21:35:54.119Z,26.76
2019-02-16T21:38:32.105Z,26.72
2019-02-16T21:41:01.389Z,26.59
2019-02-16T21:43:33.477Z,26.59
2019-02-16T21:46:08.465Z,26.61
2019-02-16T21:48:40.498Z,26.52
2019-02-16T21:51:21.392Z,26.48
2019-02-16T21:54:02.714Z,26.43
2019-02-16T21:56:50.495Z,26.54
2019-02-16T21:59:28.760Z,26.59
2019-02-16T22:02:00.696Z,26.64
2019-02-16T22:04:39.112Z,26.60
2019-02-16T22:07:24.818Z,26.58
2019-02-16T22:10:12.310Z,26.53
2019-02-16T22:12:53.868Z,26.48
2019-02-16T22:15:21.510Z,26.45
2019-02-16T22:17:49.170Z,26.48
2019-02-16T22:20:16.809Z,26.73
2019-02-16T22:22:44.438Z,26.71
2019-02-16T22:25:12.100Z,26.74
2019-02-16T22:27:39.736Z,26.75
2019-02-16T22:30:08.976Z,26.79
2019-02-16T22:32:36.588Z,26.86
2019-02-16T22:35:05.079Z,26.72
2019-02-16T22:37:32.752Z,26.63
2019-02-16T22:40:00.386Z,26.51
2019-02-16T22:42:27.998Z,26.59
2019-02-16T22:44:55.650Z,26.70
2019-02-16T22:47:23.278Z,26.54
2019-02-16T22:49:50.924Z,26.60
2019-02-16T22:52:18.566Z,26.60
2019-02-16T22:54:46.202Z,26.51
2019-02-16T22:57:13.840Z,26.54
2019-02-16T22:59:41.487Z,26.63
2019-02-16T23:02:09.554Z,26.48
2019-02-16T23:04:37.213Z,26.56
2019-02-16T23:07:04.906Z,26.59
2019-02-16T23:09:32.565Z,26.58
2019-02-16T23:12:00.178Z,26.62
2019-02-16T23:14:28.076Z,26.54
2019-02-16T23:16:55.734Z,26.53
2019-02-16T23:19:23.356Z,26.50
2019-02-16T23:21:50.999Z,26.60
2019-02-16T23:24:18.634Z,26.57
2019-02-16T23:26:46.290Z,26.49
2019-02-16T23:29:13.912Z,26.45
2019-02-16T23:31:41.570Z,26.34
2019-02-16T23:34:09.364Z,26.45
2019-02-16T23:36:36.989Z,26.39
2019-02-16T23:39:06.293Z,26.60
2019-02-16T23:41:33.916Z,26.50
2019-02-16T23:44:01.555Z,26.44
2019-02-16T23:46:29.206Z,26.43
2019-02-16T23:48:56.856Z,26.42
2019-02-16T23:51:24.510Z,26.40
2019-02-16T23:53:52.140Z,26.43
2019-02-16T23:56:19.791Z,26.44
2019-02-16T23:58:49.580Z,26.38
